Time;durP1;ratioP1;P1;durP2;ratioP2;P2;SDS_P1;SDS_P2;PMS_P1;PMS_P2;Temp;Humidity;BMP_temperature;BMP_pressure;BME280_temperature;BME280_humidity;BME280_pressure;Samples;Min_cycle;Max_cycle;Signal;HPM_P1;HPM_P2
2022/03/27 00:00:57;;;;;;;9.95;4.47;;;;;;;;;;5025333;28;20052;-64
2022/03/27 00:03:23;;;;;;;8.80;4.82;;;;;;;;;;5042211;28;20170;-64
2022/03/27 00:05:50;;;;;;;8.88;4.47;;;;;;;;;;5043404;28;20080;-64
2022/03/27 00:08:16;;;;;;;9.25;4.70;;;;;;;;;;5042827;28;20068;-64
2022/03/27 00:13:37;;;;;;;9.82;4.53;;;;;;;;;;5042349;28;20045;-64
2022/03/27 00:16:03;;;;;;;11.15;4.70;;;;;;;;;;5043066;28;20055;-64
2022/03/27 00:18:30;;;;;;;8.75;4.30;;;;;;;;;;5042280;28;20044;-65
2022/03/27 00:20:56;;;;;;;9.75;4.40;;;;;;;;;;5042919;28;20105;-64
2022/03/27 00:23:22;;;;;;;9.60;4.97;;;;;;;;;;5043153;28;20049;-65
2022/03/27 00:25:50;;;;;;;10.00;5.30;;;;;;;;;;5042697;28;20150;-64
2022/03/27 00:28:16;;;;;;;8.10;4.82;;;;;;;;;;5043207;28;20045;-65
2022/03/27 00:30:42;;;;;;;12.63;4.60;;;;;;;;;;5042912;28;20052;-64
2022/03/27 00:33:09;;;;;;;13.05;5.65;;;;;;;;;;5041802;28;20153;-65
2022/03/27 00:35:35;;;;;;;11.82;6.40;;;;;;;;;;5020006;28;20041;-65
2022/03/27 00:38:01;;;;;;;11.95;5.18;;;;;;;;;;5042790;28;20430;-64
2022/03/27 00:40:27;;;;;;;16.92;6.85;;;;;;;;;;5042640;28;20495;-64
2022/03/27 00:42:53;;;;;;;12.73;6.30;;;;;;;;;;5042892;28;20494;-63
2022/03/27 00:45:19;;;;;;;11.15;5.97;;;;;;;;;;5042866;28;20041;-63
2022/03/27 00:47:45;;;;;;;12.45;5.82;;;;;;;;;;5041883;28;20135;-65
2022/03/27 00:50:12;;;;;;;11.38;5.60;;;;;;;;;;5042592;28;20128;-64
2022/03/27 00:52:38;;;;;;;14.20;6.10;;;;;;;;;;5023886;28;20041;-63
2022/03/27 00:55:04;;;;;;;16.13;8.45;;;;;;;;;;5042523;28;20041;-64
2022/03/27 00:57:30;;;;;;;15.23;6.93;;;;;;;;;;5042502;28;20033;-64
2022/03/27 00:59:57;;;;;;;16.02;8.13;;;;;;;;;;5024983;28;20049;-64
2022/03/27 01:02:24;;;;;;;14.38;7.88;;;;;;;;;;5042091;28;20130;-63
2022/03/27 01:04:53;;;;;;;18.23;7.63;;;;;;;;;;5046540;23;20198;-63
2022/03/27 01:07:19;;;;;;;14.23;7.78;;;;;;;;;;5042779;28;20445;-63
2022/03/27 01:09:46;;;;;;;14.48;8.52;;;;;;;;;;5042535;28;20041;-63
2022/03/27 01:12:15;;;;;;;20.77;7.72;;;;;;;;;;5042119;28;20234;-63
2022/03/27 01:14:41;;;;;;;18.02;8.05;;;;;;;;;;5042302;28;20041;-64
2022/03/27 01:17:09;;;;;;;18.73;9.43;;;;;;;;;;5041688;28;20037;-63
2022/03/27 01:19:35;;;;;;;16.85;8.18;;;;;;;;;;5042276;28;20116;-64
2022/03/27 01:22:02;;;;;;;17.20;8.45;;;;;;;;;;5043428;28;20052;-63
2022/03/27 01:24:29;;;;;;;17.75;8.77;;;;;;;;;;5045821;28;20116;-63
2022/03/27 01:26:55;;;;;;;15.98;8.00;;;;;;;;;;5028272;28;20056;-63
2022/03/27 01:29:21;;;;;;;16.67;7.95;;;;;;;;;;5045897;28;20033;-62
2022/03/27 01:31:51;;;;;;;20.52;8.02;;;;;;;;;;5045070;28;20422;-62
2022/03/27 01:34:17;;;;;;;18.75;7.07;;;;;;;;;;5045766;28;20045;-63
2022/03/27 01:36:44;;;;;;;13.18;6.80;;;;;;;;;;5027667;28;20430;-62
2022/03/27 01:39:11;;;;;;;13.73;6.93;;;;;;;;;;5046027;28;20608;-63
2022/03/27 01:41:38;;;;;;;11.52;5.93;;;;;;;;;;5045575;28;20061;-62
2022/03/27 01:44:05;;;;;;;14.13;6.65;;;;;;;;;;5046351;28;20037;-63
2022/03/27 01:46:32;;;;;;;14.00;6.38;;;;;;;;;;5044256;28;20037;-63
2022/03/27 01:48:59;;;;;;;12.63;6.50;;;;;;;;;;5045938;28;20045;-64
2022/03/27 01:51:26;;;;;;;13.25;6.32;;;;;;;;;;5027008;28;20072;-63
2022/03/27 01:53:52;;;;;;;11.15;5.63;;;;;;;;;;5045518;28;20078;-63
2022/03/27 01:56:18;;;;;;;12.52;5.30;;;;;;;;;;5045739;28;20041;-63
2022/03/27 01:58:44;;;;;;;11.18;4.97;;;;;;;;;;5045341;28;20094;-62
2022/03/27 02:01:10;;;;;;;10.07;5.47;;;;;;;;;;5042418;28;20045;-62
2022/03/27 02:03:37;;;;;;;11.00;5.38;;;;;;;;;;5041893;28;20057;-62
2022/03/27 02:06:05;;;;;;;9.02;4.45;;;;;;;;;;5044466;28;20473;-62
2022/03/27 02:08:33;;;;;;;12.73;5.07;;;;;;;;;;5045121;28;20073;-62
2022/03/27 02:10:59;;;;;;;12.63;4.80;;;;;;;;;;5045231;28;20275;-62
2022/03/27 02:13:26;;;;;;;12.85;5.00;;;;;;;;;;5045174;28;20083;-63
2022/03/27 02:15:55;;;;;;;9.45;4.95;;;;;;;;;;5044933;28;20044;-63
2022/03/27 02:18:21;;;;;;;9.55;5.07;;;;;;;;;;5045812;28;20486;-62
2022/03/27 02:20:48;;;;;;;14.60;6.00;;;;;;;;;;5045001;28;20033;-62
2022/03/27 02:23:14;;;;;;;10.73;5.65;;;;;;;;;;5026774;28;20814;-62
2022/03/27 02:25:41;;;;;;;11.15;5.80;;;;;;;;;;5044545;28;20049;-62
2022/03/27 02:28:07;;;;;;;10.50;5.78;;;;;;;;;;5045485;28;20033;-62
2022/03/27 02:30:34;;;;;;;12.52;5.93;;;;;;;;;;5044794;28;20059;-62
2022/03/27 02:33:00;;;;;;;15.00;6.22;;;;;;;;;;5043777;28;20133;-62
2022/03/27 02:35:27;;;;;;;14.57;6.55;;;;;;;;;;5044405;28;20036;-63
2022/03/27 02:37:53;;;;;;;17.27;6.30;;;;;;;;;;5045250;28;20064;-62
2022/03/27 02:40:19;;;;;;;11.02;5.90;;;;;;;;;;5044931;28;20128;-62
2022/03/27 02:42:45;;;;;;;14.57;7.15;;;;;;;;;;5026244;28;20490;-62
2022/03/27 02:45:12;;;;;;;13.07;5.88;;;;;;;;;;5044345;28;20063;-62
2022/03/27 02:47:38;;;;;;;15.48;5.78;;;;;;;;;;5043950;28;20063;-62
2022/03/27 02:50:05;;;;;;;12.25;6.15;;;;;;;;;;5044322;28;20090;-62
2022/03/27 02:52:33;;;;;;;16.27;6.30;;;;;;;;;;5044219;28;20049;-62
2022/03/27 02:55:00;;;;;;;15.98;6.75;;;;;;;;;;5044520;28;20503;-63
2022/03/27 02:57:26;;;;;;;15.32;6.60;;;;;;;;;;5044418;28;20048;-62
2022/03/27 02:59:52;;;;;;;14.77;7.30;;;;;;;;;;5044369;28;20040;-62
2022/03/27 03:02:19;;;;;;;15.80;6.55;;;;;;;;;;5043226;28;20550;-62
2022/03/27 03:04:45;;;;;;;16.20;7.22;;;;;;;;;;5043608;28;20057;-62
2022/03/27 03:07:11;;;;;;;16.83;6.25;;;;;;;;;;5044505;28;20045;-63
2022/03/27 03:09:38;;;;;;;13.48;7.28;;;;;;;;;;5044055;28;20098;-62
2022/03/27 03:12:05;;;;;;;18.90;6.82;;;;;;;;;;5026442;28;20498;-62
2022/03/27 03:14:33;;;;;;;17.48;6.15;;;;;;;;;;5044059;28;20037;-62
2022/03/27 03:17:00;;;;;;;19.80;7.20;;;;;;;;;;5039707;28;20565;-63
2022/03/27 03:19:26;;;;;;;18.58;6.50;;;;;;;;;;5043282;28;20107;-62
2022/03/27 03:21:52;;;;;;;20.00;7.70;;;;;;;;;;5044250;28;20479;-62
2022/03/27 03:24:19;;;;;;;16.40;6.93;;;;;;;;;;5026166;28;20047;-62
2022/03/27 03:26:45;;;;;;;16.50;6.95;;;;;;;;;;5039730;28;21165;-62
2022/03/27 03:29:11;;;;;;;19.90;8.05;;;;;;;;;;5043819;28;20041;-62
2022/03/27 03:31:37;;;;;;;19.42;6.60;;;;;;;;;;5024916;28;20049;-63
2022/03/27 03:34:03;;;;;;;24.70;8.27;;;;;;;;;;5044099;28;20140;-62
2022/03/27 03:36:29;;;;;;;22.45;7.75;;;;;;;;;;5043611;28;20106;-62
2022/03/27 03:38:55;;;;;;;19.65;7.80;;;;;;;;;;5025514;28;20486;-63
2022/03/27 03:41:22;;;;;;;26.48;9.18;;;;;;;;;;5043602;28;20095;-62
2022/03/27 03:43:48;;;;;;;17.23;7.72;;;;;;;;;;5043514;28;20045;-62
2022/03/27 03:46:14;;;;;;;20.45;7.70;;;;;;;;;;5042156;28;20082;-62
2022/03/27 03:48:40;;;;;;;21.17;7.47;;;;;;;;;;5043516;28;20043;-62
2022/03/27 03:51:07;;;;;;;26.08;7.28;;;;;;;;;;5043056;28;20376;-62
2022/03/27 03:53:33;;;;;;;23.33;7.47;;;;;;;;;;5043370;28;20037;-62
2022/03/27 03:55:59;;;;;;;24.00;8.25;;;;;;;;;;5042794;28;20701;-62
2022/03/27 03:58:25;;;;;;;17.58;6.32;;;;;;;;;;5024859;28;20052;-62
2022/03/27 04:00:51;;;;;;;23.35;6.93;;;;;;;;;;5043615;28;20045;-62
2022/03/27 04:03:17;;;;;;;18.92;7.07;;;;;;;;;;5043151;28;20086;-63
2022/03/27 04:05:44;;;;;;;24.98;6.80;;;;;;;;;;5042703;28;20045;-63
2022/03/27 04:08:10;;;;;;;17.55;6.68;;;;;;;;;;5042861;28;20372;-63
2022/03/27 04:10:36;;;;;;;18.38;6.72;;;;;;;;;;5043023;28;20048;-64
2022/03/27 04:13:03;;;;;;;15.98;6.35;;;;;;;;;;5042973;28;20220;-64
2022/03/27 04:15:29;;;;;;;18.02;6.05;;;;;;;;;;5042768;28;20387;-63
2022/03/27 04:17:55;;;;;;;27.88;6.95;;;;;;;;;;5042120;28;20106;-64
2022/03/27 04:20:21;;;;;;;17.73;6.95;;;;;;;;;;5043412;28;20045;-64
2022/03/27 04:22:47;;;;;;;16.92;6.47;;;;;;;;;;5038858;28;20139;-64
2022/03/27 04:25:15;;;;;;;20.55;6.97;;;;;;;;;;5042889;28;20056;-64
2022/03/27 04:27:42;;;;;;;16.90;6.43;;;;;;;;;;5042878;28;20041;-64
2022/03/27 04:30:09;;;;;;;18.40;6.10;;;;;;;;;;5043180;28;20080;-63
2022/03/27 04:32:36;;;;;;;21.37;6.47;;;;;;;;;;5042114;28;20032;-63
2022/03/27 04:35:02;;;;;;;20.60;6.10;;;;;;;;;;5024971;28;20045;-63
2022/03/27 04:37:28;;;;;;;23.83;6.28;;;;;;;;;;5024716;28;20037;-63
2022/03/27 04:40:02;;;;;;;20.63;6.20;;;;;;;;;;5043463;28;20037;-63
2022/03/27 04:42:28;;;;;;;16.90;5.50;;;;;;;;;;5042828;28;20486;-63
2022/03/27 04:44:54;;;;;;;19.35;5.75;;;;;;;;;;5042989;28;20048;-63
2022/03/27 04:47:21;;;;;;;23.00;5.90;;;;;;;;;;5023668;28;20048;-63
2022/03/27 04:49:47;;;;;;;18.63;5.68;;;;;;;;;;5042260;28;20087;-63
2022/03/27 04:52:13;;;;;;;21.45;5.93;;;;;;;;;;5042286;28;20648;-63
2022/03/27 04:54:39;;;;;;;19.08;5.55;;;;;;;;;;5042428;28;22008;-63
2022/03/27 04:57:07;;;;;;;25.20;6.43;;;;;;;;;;5045029;28;20041;-63
2022/03/27 04:59:33;;;;;;;18.55;6.05;;;;;;;;;;5046203;28;20121;-64
2022/03/27 05:02:01;;;;;;;18.55;6.25;;;;;;;;;;5028121;28;20488;-63
2022/03/27 05:04:28;;;;;;;19.93;6.10;;;;;;;;;;5046094;28;20068;-63
2022/03/27 05:06:54;;;;;;;24.02;6.22;;;;;;;;;;5046816;28;20315;-63
2022/03/27 05:09:20;;;;;;;20.70;6.63;;;;;;;;;;5046764;28;20041;-63
2022/03/27 05:11:47;;;;;;;20.67;6.68;;;;;;;;;;5045582;28;20060;-63
2022/03/27 05:14:13;;;;;;;32.75;7.13;;;;;;;;;;5046108;28;20773;-63
2022/03/27 05:16:39;;;;;;;23.40;7.18;;;;;;;;;;5045378;28;20037;-63
2022/03/27 05:19:06;;;;;;;24.83;6.50;;;;;;;;;;5046603;28;20069;-64
2022/03/27 05:21:32;;;;;;;34.80;7.32;;;;;;;;;;5046439;28;20041;-63
2022/03/27 05:23:59;;;;;;;29.25;7.38;;;;;;;;;;5046200;28;20747;-63
2022/03/27 05:26:25;;;;;;;23.90;7.55;;;;;;;;;;5045557;28;20092;-63
2022/03/27 05:28:52;;;;;;;29.02;8.13;;;;;;;;;;5046237;28;20175;-64
2022/03/27 05:31:18;;;;;;;27.08;7.30;;;;;;;;;;5027462;28;20417;-63
2022/03/27 05:33:44;;;;;;;29.80;7.13;;;;;;;;;;5045298;28;20439;-63
2022/03/27 05:36:11;;;;;;;28.00;7.57;;;;;;;;;;5046053;28;20044;-63
2022/03/27 05:38:38;;;;;;;25.23;7.22;;;;;;;;;;5045402;28;20041;-63
2022/03/27 05:41:04;;;;;;;23.35;7.50;;;;;;;;;;5028022;28;20044;-63
2022/03/27 05:43:31;;;;;;;28.50;8.32;;;;;;;;;;5045185;28;20033;-63
2022/03/27 05:45:57;;;;;;;23.60;7.82;;;;;;;;;;5044946;28;20044;-63
2022/03/27 05:48:23;;;;;;;48.50;8.70;;;;;;;;;;5045731;28;20073;-63
2022/03/27 05:50:49;;;;;;;25.90;8.40;;;;;;;;;;5044861;28;20049;-63
2022/03/27 05:53:16;;;;;;;28.27;7.30;;;;;;;;;;5045424;28;20143;-63
2022/03/27 05:55:42;;;;;;;26.15;7.50;;;;;;;;;;5045457;28;20068;-63
2022/03/27 05:58:08;;;;;;;27.38;8.00;;;;;;;;;;5045696;28;20052;-63
2022/03/27 06:00:34;;;;;;;26.65;7.38;;;;;;;;;;5040820;28;20526;-63
2022/03/27 06:03:01;;;;;;;37.10;8.77;;;;;;;;;;5044869;28;20729;-63
2022/03/27 06:05:27;;;;;;;31.40;8.65;;;;;;;;;;5044649;28;20049;-63
2022/03/27 06:07:54;;;;;;;28.63;8.25;;;;;;;;;;5044476;28;20103;-63
2022/03/27 06:10:22;;;;;;;31.15;8.65;;;;;;;;;;5042008;28;20548;-63
2022/03/27 06:12:48;;;;;;;29.60;6.65;;;;;;;;;;5044827;28;20053;-64
2022/03/27 06:15:15;;;;;;;32.78;7.47;;;;;;;;;;5026792;28;20045;-64
2022/03/27 06:17:44;;;;;;;36.75;6.78;;;;;;;;;;5044571;28;20091;-64
2022/03/27 06:20:12;;;;;;;30.00;7.47;;;;;;;;;;5044705;28;20084;-64
2022/03/27 06:22:39;;;;;;;25.03;7.23;;;;;;;;;;5044315;28;20056;-64
2022/03/27 06:25:06;;;;;;;36.70;6.90;;;;;;;;;;5044084;28;20048;-64
2022/03/27 06:27:32;;;;;;;35.30;6.78;;;;;;;;;;5040868;28;20331;-64
2022/03/27 06:29:59;;;;;;;36.05;6.53;;;;;;;;;;5043667;28;20140;-64
2022/03/27 06:32:27;;;;;;;29.88;7.53;;;;;;;;;;5042559;28;20065;-65
2022/03/27 06:34:59;;;;;;;35.88;7.72;;;;;;;;;;5044567;28;20045;-64
2022/03/27 06:37:26;;;;;;;36.50;7.30;;;;;;;;;;5044232;28;20052;-64
2022/03/27 06:39:54;;;;;;;29.80;7.05;;;;;;;;;;5045260;28;20051;-64
2022/03/27 06:42:20;;;;;;;33.90;8.67;;;;;;;;;;5044705;28;20120;-63
2022/03/27 06:44:46;;;;;;;33.75;7.00;;;;;;;;;;5044170;28;20296;-63
2022/03/27 06:47:13;;;;;;;34.83;6.50;;;;;;;;;;5043918;28;20049;-63
2022/03/27 06:49:40;;;;;;;41.72;7.80;;;;;;;;;;5044501;28;20040;-63
2022/03/27 06:52:06;;;;;;;37.92;6.95;;;;;;;;;;5044638;28;20541;-63
2022/03/27 06:54:33;;;;;;;41.45;6.90;;;;;;;;;;5044518;28;20049;-64
2022/03/27 06:56:59;;;;;;;35.17;6.78;;;;;;;;;;5026642;28;20088;-64
2022/03/27 06:59:26;;;;;;;34.80;5.95;;;;;;;;;;5044097;28;20041;-64
2022/03/27 07:04:36;;;;;;;32.85;7.30;;;;;;;;;;5043824;28;20053;-63
2022/03/27 07:07:03;;;;;;;31.85;6.45;;;;;;;;;;5044048;28;20056;-64
2022/03/27 07:09:29;;;;;;;34.80;7.22;;;;;;;;;;5044176;28;20048;-64
2022/03/27 07:11:55;;;;;;;31.48;6.43;;;;;;;;;;5044388;28;20120;-64
2022/03/27 07:14:24;;;;;;;40.35;7.20;;;;;;;;;;5039974;28;20044;-64
2022/03/27 07:16:50;;;;;;;38.58;7.07;;;;;;;;;;5042789;28;20052;-64
2022/03/27 07:19:16;;;;;;;46.75;7.22;;;;;;;;;;5044283;28;20741;-64
2022/03/27 07:21:43;;;;;;;39.72;7.40;;;;;;;;;;5026159;28;20075;-64
2022/03/27 07:24:09;;;;;;;34.22;6.45;;;;;;;;;;5043690;28;20053;-64
2022/03/27 07:26:36;;;;;;;41.42;6.65;;;;;;;;;;5043481;28;20049;-64
2022/03/27 07:29:04;;;;;;;27.83;5.90;;;;;;;;;;5043789;28;20037;-64
2022/03/27 07:31:31;;;;;;;29.27;6.35;;;;;;;;;;5042219;28;20044;-64
2022/03/27 07:33:57;;;;;;;40.28;6.82;;;;;;;;;;5043258;28;20033;-64
2022/03/27 07:36:23;;;;;;;31.42;6.25;;;;;;;;;;5042244;28;20033;-63
2022/03/27 07:38:49;;;;;;;35.53;6.55;;;;;;;;;;5029149;28;20056;-64
2022/03/27 07:41:16;;;;;;;35.05;7.00;;;;;;;;;;5042666;28;20109;-64
2022/03/27 07:43:42;;;;;;;33.92;6.15;;;;;;;;;;5042674;28;20064;-63
2022/03/27 07:46:09;;;;;;;32.97;6.15;;;;;;;;;;5041033;28;20037;-64
2022/03/27 07:48:35;;;;;;;33.83;5.82;;;;;;;;;;5022103;28;20037;-64
2022/03/27 07:51:01;;;;;;;33.28;7.45;;;;;;;;;;5041934;28;20045;-63
2022/03/27 07:53:28;;;;;;;31.20;5.38;;;;;;;;;;5042554;28;20040;-64
2022/03/27 07:55:55;;;;;;;30.67;5.97;;;;;;;;;;5043746;28;20237;-63
2022/03/27 07:58:21;;;;;;;31.05;5.63;;;;;;;;;;5044136;28;20483;-64
2022/03/27 08:00:47;;;;;;;32.53;5.97;;;;;;;;;;5042652;28;20041;-63
2022/03/27 08:03:14;;;;;;;31.15;5.63;;;;;;;;;;5043130;28;20045;-64
2022/03/27 08:05:42;;;;;;;36.45;6.80;;;;;;;;;;5038047;28;20468;-64
2022/03/27 08:08:08;;;;;;;33.90;6.43;;;;;;;;;;5038482;28;20101;-64
2022/03/27 08:10:34;;;;;;;34.53;6.25;;;;;;;;;;5042030;28;20052;-64
2022/03/27 08:13:00;;;;;;;31.15;6.65;;;;;;;;;;5042145;28;20188;-64
2022/03/27 08:15:26;;;;;;;35.63;5.90;;;;;;;;;;5042271;28;20509;-64
2022/03/27 08:17:54;;;;;;;33.75;5.25;;;;;;;;;;5043386;28;20051;-64
2022/03/27 08:20:21;;;;;;;30.02;5.30;;;;;;;;;;5042923;28;20159;-64
2022/03/27 08:22:47;;;;;;;29.77;6.40;;;;;;;;;;5025095;28;20060;-64
2022/03/27 08:26:55;;;;;;;25.48;6.20;;;;;;;;;;5042928;28;20041;-64
2022/03/27 08:28:00;;;;;;;35.88;6.00;;;;;;;;;;5042664;28;20044;-64
2022/03/27 08:30:26;;;;;;;36.28;6.18;;;;;;;;;;5039857;28;20048;-64
2022/03/27 08:32:52;;;;;;;31.95;5.75;;;;;;;;;;5048405;28;20076;-64
2022/03/27 08:35:18;;;;;;;35.65;6.50;;;;;;;;;;5042698;28;20056;-64
2022/03/27 08:37:44;;;;;;;28.58;5.07;;;;;;;;;;5049164;28;20055;-64
2022/03/27 08:40:11;;;;;;;40.15;7.07;;;;;;;;;;5049664;28;20047;-64
2022/03/27 08:42:37;;;;;;;35.90;6.72;;;;;;;;;;5042331;28;20033;-64
2022/03/27 08:45:03;;;;;;;24.85;4.78;;;;;;;;;;5027539;28;20494;-64
2022/03/27 08:47:30;;;;;;;38.17;5.80;;;;;;;;;;5047764;28;20551;-64
2022/03/27 08:50:02;;;;;;;26.27;5.10;;;;;;;;;;5049344;28;20136;-65
2022/03/27 08:52:48;;;;;;;35.55;6.10;;;;;;;;;;5046818;28;20041;-65
2022/03/27 08:55:24;;;;;;;27.98;5.47;;;;;;;;;;5049455;28;20045;-65
2022/03/27 08:57:57;;;;;;;32.25;5.68;;;;;;;;;;5049512;28;20091;-64
2022/03/27 09:00:25;;;;;;;35.00;6.72;;;;;;;;;;5048940;28;20045;-64
2022/03/27 09:02:51;;;;;;;25.83;5.47;;;;;;;;;;5049507;28;20045;-64
2022/03/27 09:05:20;;;;;;;35.72;6.55;;;;;;;;;;5049020;28;20045;-64
2022/03/27 09:07:48;;;;;;;34.22;6.43;;;;;;;;;;5045416;28;20087;-64
2022/03/27 09:10:15;;;;;;;49.20;5.57;;;;;;;;;;5048657;28;21882;-66
2022/03/27 09:12:42;;;;;;;24.95;6.13;;;;;;;;;;5048608;28;20568;-66
2022/03/27 09:15:09;;;;;;;23.30;5.57;;;;;;;;;;5043714;28;20375;-66
2022/03/27 09:17:59;;;;;;;25.05;5.18;;;;;;;;;;5037088;28;20041;-66
2022/03/27 09:20:34;;;;;;;34.90;6.75;;;;;;;;;;5033238;28;20042;-66
2022/03/27 09:23:12;;;;;;;28.92;5.55;;;;;;;;;;5039296;28;20152;-65
2022/03/27 09:25:43;;;;;;;26.58;5.97;;;;;;;;;;5039780;28;20115;-65
2022/03/27 09:28:10;;;;;;;34.33;6.47;;;;;;;;;;5024501;28;20132;-66
2022/03/27 09:30:36;;;;;;;36.40;6.82;;;;;;;;;;5039654;28;20098;-65
2022/03/27 09:33:02;;;;;;;22.75;4.78;;;;;;;;;;5037462;28;20048;-65
2022/03/27 09:35:29;;;;;;;27.20;4.30;;;;;;;;;;5021215;28;20187;-65
2022/03/27 09:37:55;;;;;;;33.67;5.45;;;;;;;;;;5038763;28;20077;-65
2022/03/27 09:40:22;;;;;;;37.47;6.10;;;;;;;;;;5046225;28;20047;-65
2022/03/27 09:43:08;;;;;;;25.50;5.15;;;;;;;;;;5045714;28;20056;-64
2022/03/27 09:45:34;;;;;;;28.98;4.20;;;;;;;;;;5044636;28;20051;-65
2022/03/27 09:48:07;;;;;;;38.13;5.85;;;;;;;;;;5045827;28;20181;-64
2022/03/27 09:50:34;;;;;;;42.83;6.55;;;;;;;;;;5045227;28;20079;-64
2022/03/27 09:53:17;;;;;;;36.50;5.95;;;;;;;;;;5027959;28;20044;-64
2022/03/27 09:55:43;;;;;;;29.13;5.00;;;;;;;;;;5045291;28;20045;-64
2022/03/27 09:58:09;;;;;;;41.33;5.90;;;;;;;;;;5028242;28;20079;-64
2022/03/27 10:00:36;;;;;;;34.40;5.63;;;;;;;;;;5044460;28;20040;-64
2022/03/27 10:03:10;;;;;;;31.48;4.75;;;;;;;;;;5044799;28;20044;-64
2022/03/27 10:05:37;;;;;;;30.20;6.65;;;;;;;;;;5045153;28;20045;-64
2022/03/27 10:08:03;;;;;;;28.40;5.18;;;;;;;;;;5045330;28;20491;-64
2022/03/27 10:10:29;;;;;;;40.28;5.90;;;;;;;;;;5045168;28;20099;-64
2022/03/27 10:12:57;;;;;;;31.25;5.40;;;;;;;;;;5045235;28;20048;-64
2022/03/27 10:15:25;;;;;;;35.85;5.53;;;;;;;;;;5045103;28;20509;-65
2022/03/27 10:17:53;;;;;;;29.27;4.43;;;;;;;;;;5045423;28;20076;-65
2022/03/27 10:20:22;;;;;;;29.40;4.53;;;;;;;;;;5045337;28;20296;-65
2022/03/27 10:22:50;;;;;;;34.20;5.13;;;;;;;;;;5041481;28;20049;-65
2022/03/27 10:25:17;;;;;;;43.42;5.22;;;;;;;;;;5044926;28;20045;-65
2022/03/27 10:27:44;;;;;;;23.60;5.07;;;;;;;;;;5026838;28;20072;-65
2022/03/27 10:30:11;;;;;;;29.55;5.53;;;;;;;;;;5044350;28;20113;-65
2022/03/27 10:32:39;;;;;;;33.05;4.72;;;;;;;;;;5044764;28;20177;-65
2022/03/27 10:35:25;;;;;;;32.63;4.22;;;;;;;;;;5026690;28;20045;-66
2022/03/27 10:38:14;;;;;;;46.40;4.78;;;;;;;;;;5045026;28;20223;-66
2022/03/27 10:40:46;;;;;;;24.40;4.20;;;;;;;;;;5043767;28;20497;-66
2022/03/27 10:43:19;;;;;;;39.95;5.10;;;;;;;;;;5044377;28;20426;-66
2022/03/27 10:45:45;;;;;;;29.10;4.63;;;;;;;;;;5043419;28;20053;-65
2022/03/27 10:48:13;;;;;;;25.10;4.60;;;;;;;;;;5044567;28;20039;-66
2022/03/27 10:50:46;;;;;;;24.60;4.80;;;;;;;;;;5044008;28;20044;-65
2022/03/27 10:53:13;;;;;;;37.30;6.53;;;;;;;;;;5044797;28;20045;-66
2022/03/27 10:55:42;;;;;;;24.55;4.97;;;;;;;;;;5044091;28;20132;-66
2022/03/27 10:58:29;;;;;;;19.35;4.70;;;;;;;;;;5044076;28;20041;-66
2022/03/27 11:00:55;;;;;;;23.95;5.13;;;;;;;;;;5025581;28;20221;-66
2022/03/27 11:03:40;;;;;;;20.77;5.22;;;;;;;;;;5044754;28;20071;-66
2022/03/27 11:06:20;;;;;;;40.42;5.95;;;;;;;;;;5043686;28;20127;-66
2022/03/27 11:08:46;;;;;;;28.30;5.65;;;;;;;;;;5039902;28;20096;-65
2022/03/27 11:11:12;;;;;;;36.67;5.68;;;;;;;;;;5044392;28;20503;-65
2022/03/27 11:13:39;;;;;;;26.80;5.20;;;;;;;;;;5044035;28;20127;-66
2022/03/27 11:16:12;;;;;;;37.10;6.32;;;;;;;;;;5043100;28;20086;-66
2022/03/27 11:18:41;;;;;;;206.85;15.50;;;;;;;;;;5043814;28;20043;-66
2022/03/27 11:21:09;;;;;;;49.13;6.07;;;;;;;;;;5043915;28;20486;-66
2022/03/27 11:23:37;;;;;;;27.00;5.45;;;;;;;;;;5043965;28;20095;-67
2022/03/27 11:26:04;;;;;;;51.47;6.40;;;;;;;;;;5043650;28;20092;-66
2022/03/27 11:28:45;;;;;;;37.40;5.32;;;;;;;;;;5039737;28;20049;-66
2022/03/27 11:31:11;;;;;;;36.58;6.40;;;;;;;;;;5035626;28;20040;-66
2022/03/27 11:33:38;;;;;;;42.88;5.00;;;;;;;;;;5032711;28;20037;-66
2022/03/27 11:36:08;;;;;;;21.67;4.40;;;;;;;;;;5043911;28;20048;-66
2022/03/27 11:38:52;;;;;;;26.95;4.60;;;;;;;;;;5043699;28;20057;-66
2022/03/27 11:41:22;;;;;;;18.85;3.95;;;;;;;;;;5043841;28;20041;-66
2022/03/27 11:43:50;;;;;;;22.00;4.13;;;;;;;;;;5043617;28;20044;-66
2022/03/27 11:46:22;;;;;;;24.65;3.88;;;;;;;;;;5042388;28;20063;-67
2022/03/27 11:48:54;;;;;;;20.35;3.88;;;;;;;;;;5043502;28;20041;-67
2022/03/27 11:51:20;;;;;;;22.27;3.97;;;;;;;;;;5043347;28;20084;-67
2022/03/27 11:53:46;;;;;;;27.20;3.88;;;;;;;;;;5037979;28;20076;-67
2022/03/27 11:56:12;;;;;;;20.67;4.40;;;;;;;;;;5043792;28;20045;-67
2022/03/27 11:58:39;;;;;;;18.23;4.13;;;;;;;;;;5025546;28;20041;-67
2022/03/27 12:01:08;;;;;;;23.75;4.30;;;;;;;;;;5041986;28;20052;-67
2022/03/27 12:03:35;;;;;;;16.50;3.25;;;;;;;;;;5041718;28;20065;-67
2022/03/27 12:06:09;;;;;;;22.65;4.38;;;;;;;;;;5042225;28;20055;-66
2022/03/27 12:08:36;;;;;;;19.27;3.28;;;;;;;;;;5042037;28;20084;-67
2022/03/27 12:11:06;;;;;;;16.38;3.35;;;;;;;;;;5040403;28;20128;-67
2022/03/27 12:13:37;;;;;;;19.92;3.67;;;;;;;;;;5029444;28;20497;-67
2022/03/27 12:16:03;;;;;;;27.50;4.57;;;;;;;;;;5023073;28;20512;-66
2022/03/27 12:18:30;;;;;;;15.48;3.47;;;;;;;;;;5029368;28;20397;-66
2022/03/27 12:20:57;;;;;;;23.50;4.22;;;;;;;;;;5036280;28;20041;-67
2022/03/27 12:23:25;;;;;;;22.23;4.18;;;;;;;;;;5037704;28;20080;-67
2022/03/27 12:25:51;;;;;;;;;;;;;;;;;;5034079;28;20053;-67
2022/03/27 12:31:03;;;;;;;19.33;3.75;;;;;;;;;;5033584;28;20064;-67
2022/03/27 12:33:29;;;;;;;19.92;4.00;;;;;;;;;;5037251;28;20170;-67
2022/03/27 12:36:05;;;;;;;23.27;4.80;;;;;;;;;;5037432;28;20415;-67
2022/03/27 12:38:32;;;;;;;13.15;3.03;;;;;;;;;;5043191;28;20047;-67
2022/03/27 12:40:59;;;;;;;16.83;3.05;;;;;;;;;;5042926;28;20039;-67
2022/03/27 12:43:25;;;;;;;22.42;3.55;;;;;;;;;;5040489;28;20478;-66
2022/03/27 12:45:51;;;;;;;27.52;4.32;;;;;;;;;;5042090;28;20632;-67
2022/03/27 12:48:19;;;;;;;20.33;3.20;;;;;;;;;;5041733;28;20033;-67
2022/03/27 12:50:48;;;;;;;16.02;3.80;;;;;;;;;;5041286;28;20167;-67
2022/03/27 12:53:20;;;;;;;24.83;3.20;;;;;;;;;;5041636;28;20041;-67
2022/03/27 12:56:02;;;;;;;16.20;2.75;;;;;;;;;;5042547;28;20410;-67
2022/03/27 12:58:34;;;;;;;16.50;3.53;;;;;;;;;;5042960;28;20183;-67
2022/03/27 13:01:07;;;;;;;23.40;3.35;;;;;;;;;;5042127;28;20053;-68
2022/03/27 13:03:35;;;;;;;17.67;3.60;;;;;;;;;;5042134;28;20060;-67
2022/03/27 13:06:03;;;;;;;20.23;3.00;;;;;;;;;;5042545;28;20514;-67
2022/03/27 13:08:31;;;;;;;13.57;2.28;;;;;;;;;;5042845;28;20045;-67
2022/03/27 13:10:58;;;;;;;17.52;2.72;;;;;;;;;;5042681;28;20088;-67
2022/03/27 13:13:38;;;;;;;17.05;3.33;;;;;;;;;;5042635;28;20049;-67
2022/03/27 13:16:25;;;;;;;19.40;3.15;;;;;;;;;;5041910;28;20673;-68
2022/03/27 13:19:00;;;;;;;16.33;3.33;;;;;;;;;;5046730;28;20041;-68
2022/03/27 13:21:27;;;;;;;23.33;2.80;;;;;;;;;;5045959;28;20128;-68
2022/03/27 13:23:53;;;;;;;16.92;2.63;;;;;;;;;;5046685;28;20044;-68
2022/03/27 13:26:19;;;;;;;16.20;2.40;;;;;;;;;;5046851;28;20037;-68
2022/03/27 13:28:45;;;;;;;19.08;2.47;;;;;;;;;;5045839;28;20057;-68
2022/03/27 13:31:12;;;;;;;18.60;3.05;;;;;;;;;;5045284;28;20167;-68
2022/03/27 13:33:38;;;;;;;14.65;2.30;;;;;;;;;;5046009;28;20037;-68
2022/03/27 13:36:05;;;;;;;13.43;2.35;;;;;;;;;;5046343;28;20044;-68
2022/03/27 13:38:32;;;;;;;19.75;2.70;;;;;;;;;;5045727;28;20069;-68
2022/03/27 13:43:43;;;;;;;19.02;2.55;;;;;;;;;;5046073;28;20257;-67
2022/03/27 13:46:09;;;;;;;12.05;1.80;;;;;;;;;;5045140;28;20048;-67
2022/03/27 13:48:36;;;;;;;17.95;2.60;;;;;;;;;;5045462;28;20068;-67
2022/03/27 13:51:03;;;;;;;16.95;1.92;;;;;;;;;;5027922;28;20467;-68
2022/03/27 13:53:29;;;;;;;9.00;2.08;;;;;;;;;;5044945;28;20045;-67
2022/03/27 13:55:55;;;;;;;14.05;2.17;;;;;;;;;;5045396;28;20048;-67
2022/03/27 13:58:22;;;;;;;9.73;1.75;;;;;;;;;;5046577;28;20037;-67
2022/03/27 14:00:48;;;;;;;13.90;2.70;;;;;;;;;;5026982;28;20061;-67
2022/03/27 14:03:15;;;;;;;11.25;2.05;;;;;;;;;;5045289;28;20136;-68
2022/03/27 14:05:42;;;;;;;11.63;1.67;;;;;;;;;;5027441;28;20045;-67
2022/03/27 14:08:08;;;;;;;7.95;1.70;;;;;;;;;;5045652;28;20044;-67
2022/03/27 14:10:35;;;;;;;10.65;1.92;;;;;;;;;;5045055;28;20064;-67
2022/03/27 14:13:01;;;;;;;10.40;1.80;;;;;;;;;;5040878;28;20049;-67
2022/03/27 14:15:27;;;;;;;10.20;1.85;;;;;;;;;;5044569;28;20075;-67
2022/03/27 14:17:53;;;;;;;12.98;1.77;;;;;;;;;;5046019;28;20257;-67
2022/03/27 14:20:20;;;;;;;13.07;1.83;;;;;;;;;;5045557;28;20097;-68
2022/03/27 14:22:47;;;;;;;9.95;1.50;;;;;;;;;;5044940;28;20049;-68
2022/03/27 14:25:14;;;;;;;18.33;1.92;;;;;;;;;;5045295;28;20170;-68
2022/03/27 14:27:41;;;;;;;12.82;2.60;;;;;;;;;;5045263;28;20052;-68
2022/03/27 14:30:09;;;;;;;13.57;2.05;;;;;;;;;;5043186;28;20379;-68
2022/03/27 14:32:36;;;;;;;16.38;2.20;;;;;;;;;;5027330;28;20056;-68
2022/03/27 14:35:04;;;;;;;11.35;1.52;;;;;;;;;;5045014;28;20041;-68
2022/03/27 14:37:30;;;;;;;15.68;1.60;;;;;;;;;;5041476;28;20033;-68
2022/03/27 14:39:57;;;;;;;10.73;1.52;;;;;;;;;;5045071;28;20076;-68
2022/03/27 14:42:23;;;;;;;10.63;1.75;;;;;;;;;;5027213;28;20124;-69
2022/03/27 14:44:49;;;;;;;9.02;1.50;;;;;;;;;;5044330;28;20049;-69